createdAt,value
2023-01-15T00:00:00.569Z,996.14
2023-01-15T00:01:00.577Z,996.16
2023-01-15T00:02:00.541Z,996.14
2023-01-15T00:03:00.584Z,996.22
2023-01-15T00:04:00.588Z,996.23
2023-01-15T00:05:00.557Z,996.24
2023-01-15T00:06:00.535Z,996.20
2023-01-15T00:07:00.544Z,996.25
2023-01-15T00:08:00.540Z,996.19
2023-01-15T00:09:00.527Z,996.27
2023-01-15T00:10:00.543Z,996.25
2023-01-15T00:11:00.510Z,996.29
2023-01-15T00:12:00.517Z,996.28
2023-01-15T00:13:00.505Z,996.28
2023-01-15T00:14:00.499Z,996.33
2023-01-15T00:15:00.528Z,996.33
2023-01-15T00:16:00.525Z,996.37
2023-01-15T00:17:00.503Z,996.43
2023-01-15T00:18:00.496Z,996.38
2023-01-15T00:19:00.499Z,996.37
2023-01-15T00:20:00.499Z,996.44
2023-01-15T00:21:00.491Z,996.49
2023-01-15T00:22:00.476Z,996.49
2023-01-15T00:23:00.486Z,996.50
2023-01-15T00:24:00.464Z,996.51
2023-01-15T00:25:00.474Z,996.54
2023-01-15T00:26:00.481Z,996.55
2023-01-15T00:27:00.482Z,996.54
2023-01-15T00:28:01.868Z,996.59
2023-01-15T00:29:00.453Z,996.55
2023-01-15T00:30:00.449Z,996.57
2023-01-15T00:31:00.489Z,996.63
2023-01-15T00:32:00.453Z,996.63
2023-01-15T00:33:00.453Z,996.65
2023-01-15T00:34:00.421Z,996.70
2023-01-15T00:35:00.428Z,996.71
2023-01-15T00:36:00.426Z,996.69
2023-01-15T00:37:00.444Z,996.67
2023-01-15T00:38:00.432Z,996.78
2023-01-15T00:39:00.416Z,996.76
2023-01-15T00:40:00.435Z,996.83
2023-01-15T00:41:00.403Z,996.81
2023-01-15T00:42:00.420Z,996.78
2023-01-15T00:43:00.414Z,996.68
2023-01-15T00:44:00.392Z,996.72
2023-01-15T00:45:00.388Z,996.69
2023-01-15T00:46:00.389Z,996.69
2023-01-15T00:47:00.399Z,996.76
2023-01-15T00:48:00.379Z,996.68
2023-01-15T00:49:00.377Z,996.67
2023-01-15T00:50:00.393Z,996.65
2023-01-15T00:51:00.384Z,996.68
2023-01-15T00:52:00.374Z,996.66
2023-01-15T00:53:00.387Z,996.62
2023-01-15T00:54:00.348Z,996.64
2023-01-15T00:55:00.371Z,996.64
2023-01-15T00:56:00.357Z,996.65
2023-01-15T00:57:00.354Z,996.52
2023-01-15T00:58:00.357Z,996.66
2023-01-15T00:59:00.356Z,996.67
2023-01-15T01:00:00.333Z,996.66
2023-01-15T01:01:00.504Z,996.70
2023-01-15T01:02:00.500Z,996.64
2023-01-15T01:03:00.325Z,996.63
2023-01-15T01:04:00.344Z,996.60
2023-01-15T01:05:00.341Z,996.56
2023-01-15T01:06:00.308Z,996.64
2023-01-15T01:07:00.331Z,996.61
2023-01-15T01:08:00.325Z,996.55
2023-01-15T01:09:00.320Z,996.56
2023-01-15T01:10:00.317Z,996.61
2023-01-15T01:11:00.332Z,996.60
2023-01-15T01:12:00.307Z,996.51
2023-01-15T01:13:00.303Z,996.47
2023-01-15T01:14:00.307Z,996.44
2023-01-15T01:15:00.289Z,996.42
2023-01-15T01:16:00.351Z,996.46
2023-01-15T01:17:00.296Z,996.45
2023-01-15T01:18:00.269Z,996.44
2023-01-15T01:19:00.286Z,996.42
2023-01-15T01:20:00.253Z,996.35
2023-01-15T01:21:00.255Z,996.35
2023-01-15T01:22:00.274Z,996.41
2023-01-15T01:23:00.279Z,996.47
2023-01-15T01:24:00.239Z,996.50
2023-01-15T01:25:00.279Z,996.44
2023-01-15T01:26:00.243Z,996.44
2023-01-15T01:27:00.236Z,996.47
2023-01-15T01:28:00.238Z,996.49
2023-01-15T01:29:00.252Z,996.51
2023-01-15T01:30:00.244Z,996.66
2023-01-15T01:31:00.244Z,996.64
2023-01-15T01:32:00.225Z,996.68
2023-01-15T01:33:00.212Z,996.70
2023-01-15T01:34:00.254Z,996.67
2023-01-15T01:35:00.221Z,996.67
2023-01-15T01:36:00.223Z,996.68
2023-01-15T01:37:00.216Z,996.71
2023-01-15T01:38:00.205Z,996.79
2023-01-15T01:39:00.216Z,996.70
2023-01-15T01:40:00.200Z,996.75
2023-01-15T01:41:00.198Z,996.71
2023-01-15T01:42:00.178Z,996.64
2023-01-15T01:43:00.198Z,996.53
2023-01-15T01:44:00.180Z,996.54
2023-01-15T01:45:00.190Z,996.49
2023-01-15T01:46:00.240Z,996.56
2023-01-15T01:47:00.168Z,996.61
2023-01-15T01:48:00.156Z,996.57
2023-01-15T01:49:00.186Z,996.60
2023-01-15T01:50:00.177Z,996.51
2023-01-15T01:51:00.160Z,996.41
2023-01-15T01:52:00.142Z,996.42
2023-01-15T01:53:00.167Z,996.46
2023-01-15T01:54:00.154Z,996.46
2023-01-15T01:55:00.151Z,996.45
2023-01-15T01:56:00.156Z,996.49
2023-01-15T01:57:00.144Z,996.49
2023-01-15T01:58:00.123Z,996.43
2023-01-15T01:59:00.148Z,996.41
2023-01-15T02:00:00.166Z,996.41
2023-01-15T02:01:00.329Z,996.45
2023-01-15T02:02:00.301Z,996.46
2023-01-15T02:03:00.138Z,996.50
2023-01-15T02:04:00.111Z,996.49
2023-01-15T02:05:00.144Z,996.55
2023-01-15T02:06:00.109Z,996.61
2023-01-15T02:07:00.114Z,996.66
2023-01-15T02:08:00.112Z,996.66
2023-01-15T02:09:00.113Z,996.63
2023-01-15T02:10:00.127Z,996.66
2023-01-15T02:11:00.118Z,996.65
2023-01-15T02:12:00.106Z,996.62
2023-01-15T02:13:00.111Z,996.61
2023-01-15T02:14:00.088Z,996.61
2023-01-15T02:15:00.094Z,996.58
2023-01-15T02:16:00.148Z,996.55
2023-01-15T02:17:00.101Z,996.53
2023-01-15T02:18:00.066Z,996.52
2023-01-15T02:19:00.105Z,996.55
2023-01-15T02:20:00.087Z,996.57
2023-01-15T02:21:00.073Z,996.52
2023-01-15T02:22:00.053Z,996.45
2023-01-15T02:23:00.071Z,996.38
2023-01-15T02:24:01.905Z,996.35
2023-01-15T02:25:00.027Z,996.32
2023-01-15T02:26:00.065Z,996.27
2023-01-15T02:27:00.058Z,996.32
2023-01-15T02:28:00.046Z,996.35
2023-01-15T02:29:00.025Z,996.34
2023-01-15T02:30:00.029Z,996.37
2023-01-15T02:31:00.042Z,996.44
2023-01-15T02:32:00.055Z,996.43
2023-01-15T02:33:00.009Z,996.39
2023-01-15T02:34:00.007Z,996.43
2023-01-15T02:35:00.842Z,996.39
2023-01-15T02:35:59.984Z,996.37
2023-01-15T02:36:59.992Z,996.39
2023-01-15T02:38:00.000Z,996.42
2023-01-15T02:38:59.993Z,996.46
2023-01-15T02:39:59.996Z,996.49
2023-01-15T02:40:59.970Z,996.47
2023-01-15T02:41:59.992Z,996.45
2023-01-15T02:42:59.985Z,996.48
2023-01-15T02:43:59.961Z,996.54
2023-01-15T02:44:59.974Z,996.51
2023-01-15T02:46:00.030Z,996.48
2023-01-15T02:46:59.951Z,996.44
2023-01-15T02:47:59.950Z,996.44
2023-01-15T02:48:59.969Z,996.42
2023-01-15T02:49:59.960Z,996.43
2023-01-15T02:50:59.946Z,996.46
2023-01-15T02:51:59.944Z,996.39
2023-01-15T02:52:59.944Z,996.37
2023-01-15T02:53:59.954Z,996.31
2023-01-15T02:54:59.936Z,996.29
2023-01-15T02:55:59.943Z,996.31
2023-01-15T02:56:59.918Z,996.26
2023-01-15T02:57:59.928Z,996.26
2023-01-15T02:58:59.912Z,996.34
2023-01-15T02:59:59.907Z,996.27
2023-01-15T03:01:00.037Z,996.28
2023-01-15T03:02:00.035Z,996.26
2023-01-15T03:02:59.892Z,996.22
2023-01-15T03:03:59.908Z,996.20
2023-01-15T03:04:59.912Z,996.20
2023-01-15T03:05:59.901Z,996.23
2023-01-15T03:07:00.910Z,996.29
2023-01-15T03:07:59.891Z,996.30
2023-01-15T03:08:59.871Z,996.30
2023-01-15T03:09:59.879Z,996.30
2023-01-15T03:10:59.867Z,996.34
2023-01-15T03:11:59.872Z,996.37
2023-01-15T03:12:59.877Z,996.32
2023-01-15T03:13:59.866Z,996.32
2023-01-15T03:14:59.860Z,996.33
2023-01-15T03:15:59.851Z,996.32
2023-01-15T03:16:59.863Z,996.33
2023-01-15T03:17:59.867Z,996.40
2023-01-15T03:18:59.836Z,996.37
2023-01-15T03:19:59.859Z,996.41
2023-01-15T03:20:59.843Z,996.39
2023-01-15T03:21:59.858Z,996.45
2023-01-15T03:22:59.833Z,996.42
2023-01-15T03:23:59.830Z,996.37
2023-01-15T03:24:59.832Z,996.27
2023-01-15T03:25:59.836Z,996.28
2023-01-15T03:26:59.806Z,996.21
2023-01-15T03:27:59.821Z,996.18
2023-01-15T03:28:59.818Z,996.19
2023-01-15T03:29:59.804Z,996.19
2023-01-15T03:30:59.821Z,996.16
2023-01-15T03:31:59.805Z,996.18
2023-01-15T03:32:59.789Z,996.21
2023-01-15T03:33:59.800Z,996.20
2023-01-15T03:34:59.784Z,996.18
2023-01-15T03:35:59.781Z,996.11
2023-01-15T03:36:59.820Z,996.04
2023-01-15T03:37:59.772Z,995.97
2023-01-15T03:38:59.781Z,995.92
2023-01-15T03:39:59.803Z,996.02
2023-01-15T03:40:59.776Z,996.01
2023-01-15T03:41:59.781Z,996.02
2023-01-15T03:42:59.752Z,995.98
2023-01-15T03:43:59.767Z,995.98
2023-01-15T03:44:59.761Z,996.03
2023-01-15T03:45:59.822Z,996.00
2023-01-15T03:46:59.752Z,995.98
2023-01-15T03:47:59.749Z,995.99
2023-01-15T03:48:59.755Z,995.94
2023-01-15T03:49:59.759Z,995.93
2023-01-15T03:50:59.737Z,995.99
2023-01-15T03:51:59.738Z,995.96
2023-01-15T03:52:59.717Z,995.92
2023-01-15T03:53:59.733Z,995.93
2023-01-15T03:54:59.721Z,995.95
2023-01-15T03:55:59.724Z,995.91
2023-01-15T03:56:59.720Z,995.94
2023-01-15T03:57:59.705Z,995.94
2023-01-15T03:58:59.715Z,995.93
2023-01-15T03:59:59.700Z,995.93
2023-01-15T04:00:59.933Z,995.98
2023-01-15T04:01:59.831Z,996.05
2023-01-15T04:02:59.700Z,996.12
2023-01-15T04:03:59.774Z,996.12
2023-01-15T04:04:59.697Z,996.12
2023-01-15T04:05:59.694Z,996.19
2023-01-15T04:06:59.694Z,996.11
2023-01-15T04:07:59.693Z,996.13
2023-01-15T04:08:59.675Z,996.15
2023-01-15T04:09:59.655Z,996.14
2023-01-15T04:10:59.665Z,996.05
2023-01-15T04:11:59.669Z,996.05
2023-01-15T04:12:59.647Z,995.96
2023-01-15T04:13:59.649Z,996.01
2023-01-15T04:14:59.659Z,996.05
2023-01-15T04:15:59.707Z,995.99
2023-01-15T04:16:59.654Z,996.05
2023-01-15T04:17:59.643Z,995.99
2023-01-15T04:18:59.637Z,995.94
2023-01-15T04:19:59.627Z,995.85
2023-01-15T04:20:59.624Z,995.87
2023-01-15T04:21:59.631Z,995.84
2023-01-15T04:22:59.622Z,995.84
2023-01-15T04:23:59.625Z,995.86
2023-01-15T04:24:59.617Z,995.88
2023-01-15T04:25:59.622Z,995.92
2023-01-15T04:26:59.597Z,995.93
2023-01-15T04:27:59.599Z,995.89
2023-01-15T04:28:59.609Z,995.92
2023-01-15T04:29:59.603Z,995.92
2023-01-15T04:30:59.607Z,995.97
2023-01-15T04:31:59.597Z,996.00
2023-01-15T04:32:59.583Z,996.01
2023-01-15T04:33:59.594Z,996.09
2023-01-15T04:34:59.567Z,996.06
2023-01-15T04:35:59.582Z,996.04
2023-01-15T04:36:59.571Z,995.99
2023-01-15T04:37:59.561Z,996.01
2023-01-15T04:38:59.566Z,996.05
2023-01-15T04:39:59.571Z,996.08
2023-01-15T04:40:59.558Z,996.14
2023-01-15T04:41:59.556Z,996.11
2023-01-15T04:42:59.547Z,996.08
2023-01-15T04:43:59.555Z,996.03
2023-01-15T04:44:59.552Z,996.07
2023-01-15T04:45:59.593Z,996.09
2023-01-15T04:46:59.541Z,996.08
2023-01-15T04:47:59.530Z,996.11
2023-01-15T04:48:59.521Z,996.05
2023-01-15T04:49:59.534Z,996.09
2023-01-15T04:50:59.514Z,996.02
2023-01-15T04:51:59.528Z,996.05
2023-01-15T04:52:59.509Z,996.10
2023-01-15T04:53:59.512Z,996.20
2023-01-15T04:54:59.508Z,996.17
2023-01-15T04:55:59.503Z,996.22
2023-01-15T04:56:59.525Z,996.23
2023-01-15T04:57:59.491Z,996.19
2023-01-15T04:58:59.499Z,996.27
2023-01-15T04:59:59.502Z,996.17
2023-01-15T05:00:59.549Z,996.21
2023-01-15T05:02:05.698Z,996.26
2023-01-15T05:02:59.500Z,996.22
2023-01-15T05:03:59.475Z,996.21
2023-01-15T05:04:59.482Z,996.19
2023-01-15T05:05:59.495Z,996.19
2023-01-15T05:06:59.452Z,996.17
2023-01-15T05:07:59.461Z,996.16
2023-01-15T05:08:59.465Z,996.17
2023-01-15T05:09:59.447Z,996.13
2023-01-15T05:10:59.451Z,996.17
2023-01-15T05:11:59.489Z,996.18
2023-01-15T05:12:59.454Z,996.16
2023-01-15T05:13:59.449Z,996.17
2023-01-15T05:14:59.455Z,996.22
2023-01-15T05:15:59.531Z,996.25
2023-01-15T05:16:59.432Z,996.22
2023-01-15T05:17:59.440Z,996.19
2023-01-15T05:18:59.428Z,996.17
2023-01-15T05:19:59.422Z,996.13
2023-01-15T05:20:59.409Z,996.13
2023-01-15T05:21:59.437Z,996.13
2023-01-15T05:22:59.407Z,996.14
2023-01-15T05:23:59.439Z,996.12
2023-01-15T05:24:59.395Z,996.17
2023-01-15T05:25:59.416Z,996.10
2023-01-15T05:26:59.383Z,996.11
2023-01-15T05:27:59.388Z,996.11
2023-01-15T05:28:59.393Z,996.05
2023-01-15T05:29:59.403Z,996.12
2023-01-15T05:30:59.420Z,996.15
2023-01-15T05:31:59.387Z,996.19
2023-01-15T05:32:59.393Z,996.14
2023-01-15T05:33:59.383Z,996.13
2023-01-15T05:34:59.361Z,996.16
2023-01-15T05:35:59.356Z,996.10
2023-01-15T05:36:59.348Z,996.10
2023-01-15T05:37:59.367Z,996.16
2023-01-15T05:38:59.346Z,996.17
2023-01-15T05:39:59.370Z,996.17
2023-01-15T05:40:59.339Z,996.20
2023-01-15T05:41:59.347Z,996.16
2023-01-15T05:42:59.355Z,996.15
2023-01-15T05:43:59.342Z,996.17
2023-01-15T05:44:59.337Z,996.18
2023-01-15T05:45:59.331Z,996.18
2023-01-15T05:46:59.328Z,996.17
2023-01-15T05:47:59.317Z,996.22
2023-01-15T05:48:59.338Z,996.16
2023-01-15T05:49:59.311Z,996.11
2023-01-15T05:50:59.312Z,996.10
2023-01-15T05:51:59.318Z,996.13
2023-01-15T05:52:59.293Z,996.21
2023-01-15T05:53:59.297Z,996.11
2023-01-15T05:54:59.298Z,996.21
2023-01-15T05:55:59.297Z,996.16
2023-01-15T05:56:59.277Z,996.12
2023-01-15T05:57:59.280Z,996.21
2023-01-15T05:58:59.270Z,996.18
2023-01-15T05:59:59.274Z,996.27
2023-01-15T06:00:59.284Z,996.30
2023-01-15T06:01:59.284Z,996.30
2023-01-15T06:02:59.404Z,996.28
2023-01-15T06:03:59.299Z,996.26
2023-01-15T06:04:59.252Z,996.27
2023-01-15T06:05:59.248Z,996.22
2023-01-15T06:06:59.283Z,996.32
2023-01-15T06:08:01.236Z,996.27
2023-01-15T06:08:59.241Z,996.25
2023-01-15T06:09:59.247Z,996.15
2023-01-15T06:10:59.235Z,996.18
2023-01-15T06:11:59.263Z,996.19
2023-01-15T06:12:59.222Z,996.24
2023-01-15T06:13:59.243Z,996.32
2023-01-15T06:14:59.211Z,996.33
2023-01-15T06:15:59.253Z,996.36
2023-01-15T06:16:59.239Z,996.35
2023-01-15T06:17:59.225Z,996.39
2023-01-15T06:18:59.197Z,996.39
2023-01-15T06:19:59.218Z,996.52
2023-01-15T06:20:59.208Z,996.54
2023-01-15T06:21:59.205Z,996.52
2023-01-15T06:22:59.199Z,996.50
2023-01-15T06:23:59.200Z,996.52
2023-01-15T06:24:59.195Z,996.47
2023-01-15T06:25:59.191Z,996.52
2023-01-15T06:26:59.185Z,996.53
2023-01-15T06:27:59.193Z,996.61
2023-01-15T06:28:59.163Z,996.59
2023-01-15T06:29:59.185Z,996.54
2023-01-15T06:30:59.175Z,996.60
2023-01-15T06:31:59.174Z,996.66
2023-01-15T06:32:59.167Z,996.58
2023-01-15T06:33:59.150Z,996.62
2023-01-15T06:34:59.154Z,996.61
2023-01-15T06:35:59.155Z,996.51
2023-01-15T06:36:59.134Z,996.51
2023-01-15T06:37:59.143Z,996.53
2023-01-15T06:38:59.134Z,996.56
2023-01-15T06:39:59.147Z,996.62
2023-01-15T06:40:59.128Z,996.62
2023-01-15T06:41:59.144Z,996.61
2023-01-15T06:42:59.130Z,996.60
2023-01-15T06:43:59.134Z,996.67
2023-01-15T06:44:59.105Z,996.65
2023-01-15T06:45:59.127Z,996.63
2023-01-15T06:46:59.098Z,996.68
2023-01-15T06:47:59.118Z,996.68
2023-01-15T06:48:59.107Z,996.69
2023-01-15T06:49:59.124Z,996.72
2023-01-15T06:50:59.105Z,996.69
2023-01-15T06:51:59.117Z,996.67
2023-01-15T06:52:59.077Z,996.74
2023-01-15T06:53:59.097Z,996.76
2023-01-15T06:54:59.071Z,996.72
2023-01-15T06:55:59.065Z,996.75
2023-01-15T06:56:59.081Z,996.74
2023-01-15T06:57:59.069Z,996.79
2023-01-15T06:58:59.069Z,996.84
2023-01-15T06:59:59.081Z,996.76
2023-01-15T07:00:59.184Z,996.73
2023-01-15T07:01:59.076Z,996.77
2023-01-15T07:02:59.059Z,996.77
2023-01-15T07:03:59.167Z,996.78
2023-01-15T07:04:59.045Z,996.88
2023-01-15T07:05:59.046Z,996.83
2023-01-15T07:06:59.040Z,996.84
2023-01-15T07:07:59.054Z,996.82
2023-01-15T07:08:59.031Z,996.90
2023-01-15T07:09:59.036Z,996.99
2023-01-15T07:10:59.041Z,996.94
2023-01-15T07:11:59.015Z,997.01
2023-01-15T07:12:59.024Z,996.93
2023-01-15T07:13:59.000Z,996.95
2023-01-15T07:14:59.011Z,996.89
2023-01-15T07:15:59.040Z,996.90
2023-01-15T07:16:59.000Z,997.00
2023-01-15T07:17:58.996Z,996.96
2023-01-15T07:18:59.013Z,996.96
2023-01-15T07:19:58.994Z,996.99
2023-01-15T07:20:59.004Z,997.00
2023-01-15T07:21:58.989Z,997.06
2023-01-15T07:22:58.987Z,997.10
2023-01-15T07:23:58.985Z,997.04
2023-01-15T07:24:58.981Z,997.03
2023-01-15T07:25:58.962Z,996.96
2023-01-15T07:26:58.963Z,997.01
2023-01-15T07:27:58.972Z,997.00
2023-01-15T07:28:58.980Z,997.06
2023-01-15T07:29:58.960Z,997.01
2023-01-15T07:30:58.963Z,997.00
2023-01-15T07:31:58.942Z,997.04
2023-01-15T07:32:58.948Z,997.12
2023-01-15T07:33:58.927Z,997.09
2023-01-15T07:34:58.942Z,997.12
2023-01-15T07:35:58.924Z,997.18
2023-01-15T07:36:58.936Z,997.19
2023-01-15T07:37:58.932Z,997.16
2023-01-15T07:38:58.936Z,997.12
2023-01-15T07:39:58.917Z,997.25
2023-01-15T07:40:58.924Z,997.19
2023-01-15T07:41:58.899Z,997.21
2023-01-15T07:42:58.909Z,997.23
2023-01-15T07:43:58.925Z,997.15
2023-01-15T07:44:58.910Z,997.22
2023-01-15T07:45:58.997Z,997.28
2023-01-15T07:46:58.898Z,997.30
2023-01-15T07:47:58.898Z,997.35
2023-01-15T07:48:58.894Z,997.32
2023-01-15T07:49:58.891Z,997.30
2023-01-15T07:50:58.883Z,997.34
2023-01-15T07:51:58.880Z,997.32
2023-01-15T07:52:58.869Z,997.35
2023-01-15T07:53:58.861Z,997.39
2023-01-15T07:54:58.858Z,997.39
2023-01-15T07:55:58.866Z,997.44
2023-01-15T07:56:58.871Z,997.44
2023-01-15T07:57:58.872Z,997.50
2023-01-15T07:58:58.857Z,997.53
2023-01-15T07:59:58.849Z,997.53
2023-01-15T08:00:58.986Z,997.61
2023-01-15T08:01:59.034Z,997.65
2023-01-15T08:02:58.834Z,997.70
2023-01-15T08:03:58.930Z,997.65
2023-01-15T08:04:58.823Z,997.61
2023-01-15T08:05:58.816Z,997.56
2023-01-15T08:06:58.833Z,997.48
2023-01-15T08:07:58.810Z,997.56
2023-01-15T08:08:58.805Z,997.62
2023-01-15T08:09:58.803Z,997.74
2023-01-15T08:10:58.806Z,997.83
2023-01-15T08:11:58.810Z,997.84
2023-01-15T08:12:58.829Z,997.88
2023-01-15T08:13:58.802Z,998.02
2023-01-15T08:14:58.788Z,997.89
2023-01-15T08:15:58.804Z,997.85
2023-01-15T08:16:58.780Z,997.94
2023-01-15T08:17:58.785Z,997.98
2023-01-15T08:18:58.791Z,997.99
2023-01-15T08:19:58.799Z,998.08
2023-01-15T08:20:58.795Z,998.25
2023-01-15T08:21:58.780Z,998.23
2023-01-15T08:22:58.827Z,998.32
2023-01-15T08:23:58.781Z,998.11
2023-01-15T08:24:58.751Z,998.12
2023-01-15T08:25:58.756Z,997.93
2023-01-15T08:26:58.750Z,997.90
2023-01-15T08:27:58.760Z,997.95
2023-01-15T08:28:59.414Z,997.99
2023-01-15T08:29:58.734Z,997.96
2023-01-15T08:30:58.739Z,997.95
2023-01-15T08:31:58.738Z,998.06
2023-01-15T08:32:58.746Z,997.96
2023-01-15T08:33:58.747Z,998.07
2023-01-15T08:34:58.740Z,998.02
2023-01-15T08:35:58.726Z,998.07
2023-01-15T08:36:58.765Z,998.18
2023-01-15T08:37:58.731Z,998.07
2023-01-15T08:38:58.732Z,998.06
2023-01-15T08:39:58.753Z,998.09
2023-01-15T08:40:58.988Z,997.99
2023-01-15T08:41:58.747Z,997.97
2023-01-15T08:42:58.713Z,997.93
2023-01-15T08:43:58.720Z,997.92
2023-01-15T08:44:58.701Z,997.93
2023-01-15T08:45:58.789Z,997.95
2023-01-15T08:46:58.729Z,997.92
2023-01-15T08:47:58.677Z,997.95
2023-01-15T08:48:58.737Z,997.95
2023-01-15T08:49:58.674Z,997.91
2023-01-15T08:50:58.677Z,997.96
2023-01-15T08:51:58.674Z,997.94
2023-01-15T08:52:58.675Z,997.97
2023-01-15T08:53:58.684Z,997.95
2023-01-15T08:54:58.719Z,997.95
2023-01-15T08:55:58.680Z,997.95
2023-01-15T08:56:58.669Z,997.94
2023-01-15T08:57:58.665Z,997.97
2023-01-15T08:58:58.650Z,997.99
2023-01-15T08:59:58.672Z,998.06
2023-01-15T09:00:58.767Z,998.02
2023-01-15T09:01:58.791Z,997.98
2023-01-15T09:02:58.647Z,997.99
2023-01-15T09:03:58.668Z,998.07
2023-01-15T09:04:58.708Z,998.09
2023-01-15T09:05:58.649Z,998.10
2023-01-15T09:06:58.688Z,998.06
2023-01-15T09:07:58.636Z,998.08
2023-01-15T09:08:58.630Z,998.10
2023-01-15T09:09:58.625Z,998.05
2023-01-15T09:10:58.627Z,998.04
2023-01-15T09:11:58.652Z,998.00
2023-01-15T09:12:58.619Z,998.04
2023-01-15T09:13:58.644Z,998.09
2023-01-15T09:15:02.832Z,998.07
2023-01-15T09:15:58.650Z,998.10
2023-01-15T09:16:58.639Z,998.03
2023-01-15T09:17:58.609Z,998.06
2023-01-15T09:18:58.608Z,997.99
2023-01-15T09:19:58.604Z,998.02
2023-01-15T09:20:58.613Z,998.07
2023-01-15T09:21:58.596Z,998.05
2023-01-15T09:22:58.598Z,998.05
2023-01-15T09:23:58.608Z,998.06
2023-01-15T09:24:58.617Z,998.04
2023-01-15T09:25:58.602Z,997.99
2023-01-15T09:26:58.615Z,998.00
2023-01-15T09:27:58.598Z,997.96
2023-01-15T09:28:58.602Z,997.94
2023-01-15T09:29:58.585Z,997.97
2023-01-15T09:30:58.616Z,997.92
2023-01-15T09:31:58.592Z,997.94
2023-01-15T09:32:58.590Z,997.88
2023-01-15T09:33:58.592Z,997.87
2023-01-15T09:34:58.569Z,997.86
2023-01-15T09:35:58.589Z,997.89
2023-01-15T09:36:58.580Z,997.86
2023-01-15T09:37:58.570Z,997.96
2023-01-15T09:38:58.584Z,997.95
2023-01-15T09:39:58.582Z,997.91
2023-01-15T09:40:58.565Z,997.82
2023-01-15T09:41:58.565Z,997.85
2023-01-15T09:42:58.562Z,997.93
2023-01-15T09:43:58.559Z,997.89
2023-01-15T09:44:58.554Z,997.93
2023-01-15T09:45:58.580Z,997.92
2023-01-15T09:46:58.556Z,997.97
2023-01-15T09:47:58.549Z,997.98
2023-01-15T09:48:58.559Z,997.93
2023-01-15T09:49:58.555Z,997.94
2023-01-15T09:50:58.539Z,997.94
2023-01-15T09:51:58.550Z,997.96
2023-01-15T09:52:58.544Z,998.01
2023-01-15T09:53:58.537Z,998.03
2023-01-15T09:54:58.556Z,997.99
2023-01-15T09:55:58.542Z,998.12
2023-01-15T09:56:58.529Z,998.03
2023-01-15T09:57:58.524Z,998.07
2023-01-15T09:58:58.536Z,998.02
2023-01-15T09:59:58.535Z,998.07
2023-01-15T10:00:58.629Z,998.02
2023-01-15T10:01:58.516Z,998.05
2023-01-15T10:02:58.557Z,997.97
2023-01-15T10:03:58.529Z,997.93
2023-01-15T10:04:58.524Z,997.87
2023-01-15T10:05:58.520Z,997.94
2023-01-15T10:06:58.514Z,997.85
2023-01-15T10:07:58.516Z,997.92
2023-01-15T10:08:58.498Z,997.90
2023-01-15T10:09:58.496Z,997.92
2023-01-15T10:10:58.509Z,997.92
2023-01-15T10:11:58.495Z,997.91
2023-01-15T10:12:58.495Z,997.91
2023-01-15T10:13:58.486Z,997.94
2023-01-15T10:14:58.510Z,997.98
2023-01-15T10:15:58.676Z,997.96
2023-01-15T10:16:58.493Z,998.00
2023-01-15T10:17:58.471Z,997.99
2023-01-15T10:18:58.484Z,997.86
2023-01-15T10:19:58.505Z,997.98
2023-01-15T10:20:58.513Z,997.95
2023-01-15T10:21:58.472Z,998.04
2023-01-15T10:22:59.765Z,997.98
2023-01-15T10:23:58.475Z,998.01
2023-01-15T10:24:58.467Z,997.93
2023-01-15T10:25:58.438Z,998.03
2023-01-15T10:26:58.476Z,998.15
2023-01-15T10:27:58.423Z,998.26
2023-01-15T10:28:58.439Z,998.28
2023-01-15T10:29:58.439Z,998.26
2023-01-15T10:30:58.444Z,998.22
2023-01-15T10:31:58.410Z,998.26
2023-01-15T10:33:03.061Z,998.25
2023-01-15T10:33:58.415Z,998.23
2023-01-15T10:34:58.394Z,998.24
2023-01-15T10:35:58.378Z,998.26
2023-01-15T10:36:58.375Z,998.23
2023-01-15T10:37:58.377Z,998.21
2023-01-15T10:38:58.377Z,998.26
2023-01-15T10:39:58.368Z,998.31
2023-01-15T10:40:58.355Z,998.23
2023-01-15T10:41:58.339Z,998.27
2023-01-15T10:42:58.349Z,998.26
2023-01-15T10:43:58.327Z,998.37
2023-01-15T10:44:58.387Z,998.40
2023-01-15T10:45:58.380Z,998.32
2023-01-15T10:46:58.657Z,998.33
2023-01-15T10:47:58.315Z,998.42
2023-01-15T10:48:58.312Z,998.39
2023-01-15T10:49:58.291Z,998.36
2023-01-15T10:50:58.273Z,998.42
2023-01-15T10:51:58.269Z,998.44
2023-01-15T10:52:58.259Z,998.36
2023-01-15T10:53:58.248Z,998.38
2023-01-15T10:54:58.255Z,998.35
2023-01-15T10:55:58.234Z,998.42
2023-01-15T10:56:58.245Z,998.35
2023-01-15T10:58:09.204Z,998.41
2023-01-15T10:58:58.227Z,998.35
2023-01-15T10:59:58.204Z,998.31
2023-01-15T11:00:58.263Z,998.24
2023-01-15T11:01:58.295Z,998.23
2023-01-15T11:02:58.258Z,998.33
2023-01-15T11:03:58.178Z,998.38
2023-01-15T11:04:58.165Z,998.43
2023-01-15T11:05:58.174Z,998.27
2023-01-15T11:06:58.159Z,998.42
2023-01-15T11:09:09.225Z,998.40
2023-01-15T11:09:58.136Z,998.40
2023-01-15T11:10:58.150Z,998.36
2023-01-15T11:11:58.131Z,998.35
2023-01-15T11:12:58.110Z,998.33
2023-01-15T11:13:58.095Z,998.48
2023-01-15T11:14:58.086Z,998.33
2023-01-15T11:15:58.131Z,998.35
2023-01-15T11:16:58.068Z,998.52
2023-01-15T11:17:58.064Z,998.41
2023-01-15T11:18:58.072Z,998.31
2023-01-15T11:19:58.061Z,998.39
2023-01-15T11:20:58.043Z,998.35
2023-01-15T11:21:58.037Z,998.38
2023-01-15T11:22:58.036Z,998.28
2023-01-15T11:23:58.038Z,998.36
2023-01-15T11:24:58.018Z,998.33
2023-01-15T11:25:58.031Z,998.37
2023-01-15T11:26:58.016Z,998.39
2023-01-15T11:27:58.041Z,998.30
2023-01-15T11:28:57.995Z,998.30
2023-01-15T11:29:57.988Z,998.38
2023-01-15T11:30:58.065Z,998.30
2023-01-15T11:31:58.031Z,998.34
2023-01-15T11:32:58.011Z,998.34
2023-01-15T11:33:57.993Z,998.25
2023-01-15T11:34:57.955Z,998.29
2023-01-15T11:35:57.972Z,998.28
2023-01-15T11:36:57.955Z,998.31
2023-01-15T11:37:57.950Z,998.32
2023-01-15T11:38:57.941Z,998.40
2023-01-15T11:39:57.948Z,998.43
2023-01-15T11:40:57.936Z,998.31
2023-01-15T11:41:57.939Z,998.30
2023-01-15T11:42:57.937Z,998.32
2023-01-15T11:43:57.933Z,998.19
2023-01-15T11:44:57.911Z,998.25
2023-01-15T11:45:57.980Z,998.17
2023-01-15T11:46:57.926Z,998.20
2023-01-15T11:47:57.899Z,998.23
2023-01-15T11:48:57.904Z,998.27
2023-01-15T11:49:57.901Z,998.13
2023-01-15T11:50:57.898Z,998.11
2023-01-15T11:51:57.904Z,998.22
2023-01-15T11:52:57.889Z,998.17
2023-01-15T11:53:57.895Z,998.23
2023-01-15T11:54:57.885Z,998.24
2023-01-15T11:55:57.880Z,998.22
2023-01-15T11:56:57.870Z,998.24
2023-01-15T11:57:57.859Z,998.33
2023-01-15T11:58:57.868Z,998.27
2023-01-15T11:59:57.862Z,998.32
2023-01-15T12:00:57.939Z,998.28
2023-01-15T12:01:57.890Z,998.24
2023-01-15T12:02:57.848Z,998.31
2023-01-15T12:03:57.925Z,998.28
2023-01-15T12:04:57.892Z,998.13
2023-01-15T12:05:57.847Z,998.13
2023-01-15T12:06:57.819Z,998.13
2023-01-15T12:07:57.821Z,998.05
2023-01-15T12:08:57.829Z,998.00
2023-01-15T12:09:57.830Z,998.03
2023-01-15T12:10:57.813Z,997.97
2023-01-15T12:11:57.859Z,997.91
2023-01-15T12:12:57.816Z,997.88
2023-01-15T12:13:57.814Z,997.87
2023-01-15T12:14:57.835Z,998.07
2023-01-15T12:15:57.828Z,997.79
2023-01-15T12:16:57.796Z,997.82
2023-01-15T12:17:57.815Z,997.84
2023-01-15T12:18:57.778Z,997.82
2023-01-15T12:19:57.785Z,997.84
2023-01-15T12:20:57.777Z,997.78
2023-01-15T12:21:57.775Z,997.79
2023-01-15T12:22:57.766Z,997.92
2023-01-15T12:23:57.789Z,997.71
2023-01-15T12:24:57.799Z,997.84
2023-01-15T12:25:57.769Z,997.82
2023-01-15T12:26:57.793Z,997.86
2023-01-15T12:27:57.762Z,997.81
2023-01-15T12:28:57.780Z,997.78